createdAt,value
2023-02-06T00:00:50.042Z,3.20
2023-02-06T00:03:16.755Z,3.20
2023-02-06T00:05:43.692Z,3.30
2023-02-06T00:08:10.483Z,3.30
2023-02-06T00:10:37.239Z,3.30
2023-02-06T00:13:03.893Z,3.30
2023-02-06T00:15:30.721Z,3.30
2023-02-06T00:17:57.591Z,3.30
2023-02-06T00:20:24.316Z,3.30
2023-02-06T00:22:51.041Z,3.30
2023-02-06T00:25:17.729Z,3.30
2023-02-06T00:27:44.428Z,3.30
2023-02-06T00:30:11.582Z,3.30
2023-02-06T00:32:38.508Z,3.40
2023-02-06T00:35:07.004Z,3.40
2023-02-06T00:37:33.678Z,3.30
2023-02-06T00:40:00.396Z,3.30
2023-02-06T00:42:27.913Z,3.30
2023-02-06T00:44:54.584Z,3.40
2023-02-06T00:47:21.303Z,3.40
2023-02-06T00:49:48.092Z,3.30
2023-02-06T00:52:14.856Z,3.30
2023-02-06T00:54:41.538Z,3.30
2023-02-06T00:57:08.205Z,3.30
2023-02-06T00:59:34.937Z,3.30
2023-02-06T01:02:01.696Z,3.30
2023-02-06T01:04:30.882Z,3.40
2023-02-06T01:06:59.053Z,3.30
2023-02-06T01:09:25.921Z,3.30
2023-02-06T01:11:52.999Z,3.30
2023-02-06T01:14:19.694Z,3.30
2023-02-06T01:16:46.422Z,3.30
2023-02-06T01:19:13.093Z,3.30
2023-02-06T01:21:40.016Z,3.30
2023-02-06T01:24:06.777Z,3.40
2023-02-06T01:26:33.464Z,3.30
2023-02-06T01:29:01.773Z,3.30
2023-02-06T01:31:30.017Z,3.40
2023-02-06T01:33:58.268Z,3.30
2023-02-06T01:36:26.328Z,3.30
2023-02-06T01:38:53.492Z,3.30
2023-02-06T01:41:22.725Z,3.30
2023-02-06T01:44:11.285Z,3.30
2023-02-06T01:46:40.009Z,3.20
2023-02-06T01:49:12.107Z,3.20
2023-02-06T01:51:39.679Z,3.20
2023-02-06T01:54:07.483Z,3.20
2023-02-06T01:56:38.586Z,3.20
2023-02-06T01:59:05.761Z,3.10
2023-02-06T02:01:33.836Z,3.00
2023-02-06T02:04:07.190Z,3.00
2023-02-06T02:06:34.819Z,3.00
2023-02-06T02:09:03.382Z,2.90
2023-02-06T02:11:43.029Z,3.00
2023-02-06T02:14:14.452Z,3.00
2023-02-06T02:16:53.763Z,3.00
2023-02-06T02:19:35.809Z,3.00
2023-02-06T02:22:18.415Z,2.90
2023-02-06T02:25:17.536Z,2.90
2023-02-06T02:28:16.945Z,3.00
2023-02-06T02:30:53.229Z,3.00
2023-02-06T02:33:35.337Z,3.00
2023-02-06T02:36:28.502Z,2.90
2023-02-06T02:38:58.557Z,2.90
2023-02-06T02:41:36.400Z,2.90
2023-02-06T02:44:13.422Z,2.90
2023-02-06T02:46:47.369Z,2.80
2023-02-06T02:49:24.715Z,2.80
2023-02-06T02:51:53.619Z,2.80
2023-02-06T02:54:20.334Z,2.80
2023-02-06T02:56:47.146Z,2.80
2023-02-06T02:59:27.224Z,2.80
2023-02-06T03:02:00.921Z,2.80
2023-02-06T03:04:42.304Z,2.80
2023-02-06T03:07:25.440Z,2.80
2023-02-06T03:10:13.178Z,2.70
2023-02-06T03:12:56.833Z,2.70
2023-02-06T03:15:41.594Z,2.70
2023-02-06T03:18:13.119Z,2.70
2023-02-06T03:20:44.800Z,2.70
2023-02-06T03:23:12.950Z,2.70
2023-02-06T03:25:43.064Z,2.70
2023-02-06T03:28:25.738Z,2.70
2023-02-06T03:30:55.587Z,2.70
2023-02-06T03:33:28.605Z,2.70
2023-02-06T03:35:57.957Z,2.70
2023-02-06T03:38:25.616Z,2.70
2023-02-06T03:40:55.248Z,2.70
2023-02-06T03:43:24.804Z,2.70
2023-02-06T03:45:56.326Z,2.70
2023-02-06T03:48:37.144Z,2.60
2023-02-06T03:51:13.254Z,2.60
2023-02-06T03:53:42.419Z,2.60
2023-02-06T03:56:17.619Z,2.60
2023-02-06T03:58:44.377Z,2.60
2023-02-06T04:01:12.369Z,2.70
2023-02-06T04:03:39.027Z,2.60
2023-02-06T04:06:05.964Z,2.50
2023-02-06T04:08:32.819Z,2.50
2023-02-06T04:10:59.651Z,2.50
2023-02-06T04:13:26.497Z,2.50
2023-02-06T04:15:53.352Z,2.50
2023-02-06T04:18:20.369Z,2.60
2023-02-06T04:20:47.291Z,2.60
2023-02-06T04:23:13.959Z,2.50
2023-02-06T04:25:40.703Z,2.60
2023-02-06T04:28:07.536Z,2.50
2023-02-06T04:30:34.417Z,2.50
2023-02-06T04:33:01.304Z,2.50
2023-02-06T04:35:28.198Z,2.50
2023-02-06T04:37:55.023Z,2.50
2023-02-06T04:40:21.747Z,2.50
2023-02-06T04:42:48.631Z,2.50
2023-02-06T04:45:15.389Z,2.40
2023-02-06T04:47:42.103Z,2.40
2023-02-06T04:50:10.447Z,2.40
2023-02-06T04:52:37.176Z,2.30
2023-02-06T04:55:03.932Z,2.30
2023-02-06T04:57:30.628Z,2.30
2023-02-06T04:59:57.329Z,2.40
2023-02-06T05:02:24.054Z,2.30
2023-02-06T05:04:50.845Z,2.30
2023-02-06T05:07:17.705Z,2.30
2023-02-06T05:09:44.431Z,2.30
2023-02-06T05:12:13.967Z,2.20
2023-02-06T05:14:41.354Z,2.20
2023-02-06T05:17:08.329Z,2.20
2023-02-06T05:19:35.014Z,2.10
2023-02-06T05:22:01.756Z,1.90
2023-02-06T05:24:28.687Z,1.80
2023-02-06T05:26:57.810Z,1.80
2023-02-06T05:29:25.855Z,1.70
2023-02-06T05:31:52.626Z,1.70
2023-02-06T05:34:19.348Z,1.70
2023-02-06T05:36:46.129Z,1.80
2023-02-06T05:39:12.805Z,1.90
2023-02-06T05:41:39.625Z,1.90
2023-02-06T05:44:06.366Z,1.90
2023-02-06T05:46:33.235Z,1.90
2023-02-06T05:49:01.021Z,1.90
2023-02-06T05:51:27.683Z,2.00
2023-02-06T05:53:54.486Z,2.00
2023-02-06T05:56:21.324Z,2.00
2023-02-06T05:58:48.250Z,2.00
2023-02-06T06:01:14.998Z,2.00
2023-02-06T06:03:42.035Z,2.00
2023-02-06T06:06:08.887Z,2.10
2023-02-06T06:08:35.713Z,2.10
2023-02-06T06:11:02.774Z,2.10
2023-02-06T06:13:29.552Z,2.10
2023-02-06T06:15:56.281Z,2.20
2023-02-06T06:18:23.101Z,2.20
2023-02-06T06:20:49.972Z,2.30
2023-02-06T06:23:16.781Z,2.30
2023-02-06T06:25:43.992Z,2.30
2023-02-06T06:28:11.000Z,2.30
2023-02-06T06:30:37.848Z,2.30
2023-02-06T06:33:04.773Z,2.30
2023-02-06T06:35:31.469Z,2.30
2023-02-06T06:37:58.216Z,2.30
2023-02-06T06:40:24.965Z,2.30
2023-02-06T06:42:51.664Z,2.30
2023-02-06T06:45:18.546Z,2.30
2023-02-06T06:47:45.507Z,2.20
2023-02-06T06:50:12.461Z,2.20
2023-02-06T06:52:39.174Z,2.30
2023-02-06T06:55:06.286Z,2.30
2023-02-06T06:57:33.265Z,2.30
2023-02-06T07:00:00.378Z,2.20
2023-02-06T07:02:28.408Z,2.20
2023-02-06T07:04:55.769Z,2.20
2023-02-06T07:07:22.671Z,2.10
2023-02-06T07:09:49.492Z,2.00
2023-02-06T07:12:16.337Z,2.10
2023-02-06T07:14:43.060Z,2.00
2023-02-06T07:17:09.709Z,2.00
2023-02-06T07:19:36.454Z,2.00
2023-02-06T07:22:03.258Z,2.10
2023-02-06T07:24:30.144Z,2.20
2023-02-06T07:26:57.772Z,2.20
2023-02-06T07:29:25.079Z,2.20
2023-02-06T07:31:51.901Z,2.30
2023-02-06T07:34:18.829Z,2.30
2023-02-06T07:36:45.499Z,2.40
2023-02-06T07:39:12.442Z,2.50
2023-02-06T07:41:39.337Z,2.60
2023-02-06T07:44:06.326Z,2.70
2023-02-06T07:46:34.562Z,2.60
2023-02-06T07:49:01.393Z,2.60
2023-02-06T07:51:28.660Z,2.60
2023-02-06T07:53:55.414Z,2.50
2023-02-06T07:56:23.507Z,2.50
2023-02-06T07:58:51.711Z,2.40
2023-02-06T08:01:19.287Z,2.40
2023-02-06T08:03:48.585Z,2.40
2023-02-06T08:06:16.131Z,2.40
2023-02-06T08:08:44.125Z,2.50
2023-02-06T08:11:17.149Z,2.60
2023-02-06T08:13:44.463Z,2.80
2023-02-06T08:16:17.840Z,2.80
2023-02-06T08:18:44.809Z,3.00
2023-02-06T08:21:14.350Z,3.10
2023-02-06T08:23:42.037Z,2.90
2023-02-06T08:26:11.422Z,2.90
2023-02-06T08:28:40.707Z,2.90
2023-02-06T08:31:19.360Z,2.90
2023-02-06T08:33:46.464Z,3.00
2023-02-06T08:36:14.622Z,3.10
2023-02-06T08:38:41.418Z,3.20
2023-02-06T08:41:22.119Z,3.30
2023-02-06T08:43:50.550Z,3.40
2023-02-06T08:46:19.130Z,3.40
2023-02-06T08:48:46.244Z,3.30
2023-02-06T08:51:14.044Z,3.00
2023-02-06T08:53:41.110Z,2.70
2023-02-06T08:56:11.603Z,2.70
2023-02-06T08:58:38.973Z,2.70
2023-02-06T09:01:13.705Z,2.70
2023-02-06T09:03:41.794Z,2.80
2023-02-06T09:06:10.669Z,2.80
2023-02-06T09:08:38.718Z,2.80
2023-02-06T09:11:17.270Z,2.90
2023-02-06T09:13:49.097Z,2.90
2023-02-06T09:16:18.257Z,3.00
2023-02-06T09:18:45.698Z,2.90
2023-02-06T09:21:15.395Z,2.90
2023-02-06T09:23:45.176Z,3.00
2023-02-06T09:26:13.676Z,3.10
2023-02-06T09:28:40.396Z,3.10
2023-02-06T09:31:08.878Z,3.10
2023-02-06T09:33:37.509Z,3.20
2023-02-06T09:36:15.913Z,3.30
2023-02-06T09:38:45.350Z,3.40
2023-02-06T09:41:20.018Z,3.40
2023-02-06T09:44:12.463Z,3.40
2023-02-06T09:46:52.362Z,3.40
2023-02-06T09:49:29.935Z,3.40
2023-02-06T09:52:23.908Z,3.50
2023-02-06T09:54:53.502Z,3.40
2023-02-06T09:57:38.765Z,3.50
2023-02-06T10:00:29.369Z,3.50
2023-02-06T10:03:17.195Z,3.60
2023-02-06T10:06:01.681Z,3.60
2023-02-06T10:08:46.058Z,3.70
2023-02-06T10:11:25.640Z,3.70
2023-02-06T10:13:57.954Z,3.60
2023-02-06T10:16:34.060Z,3.50
2023-02-06T10:19:14.459Z,3.60
2023-02-06T10:21:56.224Z,3.70
2023-02-06T10:24:32.535Z,3.70
2023-02-06T10:27:02.994Z,3.70
2023-02-06T10:29:32.575Z,3.80
2023-02-06T10:32:05.024Z,3.70
2023-02-06T10:34:47.129Z,3.80
2023-02-06T10:37:21.493Z,3.80
2023-02-06T10:40:32.358Z,3.80
2023-02-06T10:43:30.024Z,3.90
2023-02-06T10:46:07.709Z,3.90
2023-02-06T10:48:47.906Z,3.90
2023-02-06T10:51:45.655Z,3.90
2023-02-06T10:54:19.503Z,3.90
2023-02-06T10:56:48.124Z,4.00
2023-02-06T10:59:31.969Z,4.10
2023-02-06T11:02:07.862Z,4.20
2023-02-06T11:04:39.382Z,4.20
2023-02-06T11:07:14.980Z,4.20
2023-02-06T11:09:41.796Z,4.20
2023-02-06T11:12:30.262Z,4.30
2023-02-06T11:15:00.668Z,4.40
2023-02-06T11:17:28.333Z,4.30
2023-02-06T11:20:02.996Z,4.40
2023-02-06T11:22:33.328Z,4.30
2023-02-06T11:25:17.702Z,4.30
2023-02-06T11:27:45.101Z,4.30
2023-02-06T11:30:35.338Z,4.30
2023-02-06T11:33:17.630Z,4.30
2023-02-06T11:35:52.090Z,4.20
2023-02-06T11:38:24.239Z,4.10
2023-02-06T11:41:03.203Z,4.10
2023-02-06T11:43:33.585Z,4.10
2023-02-06T11:46:30.854Z,4.10
2023-02-06T11:48:59.414Z,4.20
2023-02-06T11:51:46.105Z,4.30
2023-02-06T11:54:35.078Z,4.50
2023-02-06T11:57:08.001Z,4.50
2023-02-06T11:59:39.308Z,4.60
2023-02-06T12:02:26.371Z,4.80
2023-02-06T12:05:16.728Z,4.80
2023-02-06T12:07:49.292Z,4.60
2023-02-06T12:10:18.673Z,4.50
2023-02-06T12:12:53.089Z,4.60
2023-02-06T12:15:44.724Z,4.60
2023-02-06T12:18:19.065Z,4.70
2023-02-06T12:21:07.434Z,4.60
2023-02-06T12:23:40.947Z,4.80
2023-02-06T12:26:12.891Z,4.90
2023-02-06T12:28:59.385Z,4.70
2023-02-06T12:31:54.980Z,4.70
2023-02-06T12:34:41.004Z,4.50
2023-02-06T12:37:16.027Z,4.70
2023-02-06T12:39:45.351Z,4.70
2023-02-06T12:42:23.364Z,4.80
2023-02-06T12:44:57.434Z,4.90
2023-02-06T12:47:27.557Z,5.00
2023-02-06T12:50:09.419Z,5.00
2023-02-06T12:52:59.119Z,5.20
2023-02-06T12:55:33.435Z,5.20
2023-02-06T12:58:00.924Z,5.40
2023-02-06T13:00:45.694Z,5.40
2023-02-06T13:03:44.058Z,5.60
2023-02-06T13:06:18.393Z,5.60
2023-02-06T13:08:58.030Z,5.70
2023-02-06T13:11:29.557Z,5.90
2023-02-06T13:14:05.850Z,6.20
2023-02-06T13:16:42.171Z,6.30
2023-02-06T13:19:31.055Z,6.40
2023-02-06T13:22:09.879Z,6.30
2023-02-06T13:24:42.281Z,6.20
2023-02-06T13:27:08.958Z,5.90
2023-02-06T13:29:53.770Z,5.60
2023-02-06T13:32:23.483Z,5.40
2023-02-06T13:34:50.566Z,5.30
2023-02-06T13:37:21.466Z,5.40
2023-02-06T13:39:49.294Z,5.40
2023-02-06T13:42:34.274Z,5.20
2023-02-06T13:45:05.050Z,5.00
2023-02-06T13:47:50.330Z,5.10
2023-02-06T13:50:30.450Z,5.20
2023-02-06T13:53:06.918Z,5.40
2023-02-06T13:56:07.804Z,5.70
2023-02-06T13:58:44.207Z,5.90
2023-02-06T14:01:17.443Z,6.10
2023-02-06T14:03:47.973Z,6.10
2023-02-06T14:06:32.310Z,6.10
2023-02-06T14:09:30.308Z,6.00
2023-02-06T14:12:21.348Z,6.00
2023-02-06T14:15:21.393Z,5.80
2023-02-06T14:18:24.753Z,5.70
2023-02-06T14:21:12.726Z,5.50
2023-02-06T14:24:08.946Z,5.40
2023-02-06T14:27:03.804Z,5.30
2023-02-06T14:29:43.147Z,5.30
2023-02-06T14:32:35.321Z,5.30
2023-02-06T14:35:05.215Z,5.30
2023-02-06T14:37:47.248Z,5.50
2023-02-06T14:40:21.010Z,5.60
2023-02-06T14:42:48.746Z,5.80
2023-02-06T14:45:25.482Z,5.80
2023-02-06T14:47:53.626Z,5.70
2023-02-06T14:50:33.078Z,5.60
2023-02-06T14:53:27.510Z,5.60
2023-02-06T14:56:13.944Z,5.50
2023-02-06T14:58:42.516Z,5.40
2023-02-06T15:01:17.806Z,5.40
2023-02-06T15:03:46.338Z,5.30
2023-02-06T15:06:23.720Z,5.30
2023-02-06T15:08:50.968Z,5.30
2023-02-06T15:11:24.522Z,5.20
2023-02-06T15:13:54.590Z,5.30
2023-02-06T15:16:22.295Z,5.30
2023-02-06T15:18:49.321Z,5.20
2023-02-06T15:21:19.273Z,5.10
2023-02-06T15:24:01.918Z,5.00
2023-02-06T15:26:46.941Z,4.90
2023-02-06T15:29:23.043Z,4.90
2023-02-06T15:31:52.963Z,4.90
2023-02-06T15:34:23.092Z,4.90
2023-02-06T15:36:50.539Z,4.80
2023-02-06T15:39:18.244Z,4.80
2023-02-06T15:41:48.001Z,4.80
2023-02-06T15:44:33.080Z,4.70
2023-02-06T15:47:02.949Z,4.70
2023-02-06T15:49:41.372Z,4.80
2023-02-06T15:52:09.567Z,4.80
2023-02-06T15:54:36.276Z,4.80
2023-02-06T15:57:22.366Z,4.70
2023-02-06T15:59:49.120Z,4.60
2023-02-06T16:02:33.003Z,4.50
2023-02-06T16:05:01.732Z,4.40
2023-02-06T16:07:32.310Z,4.30
2023-02-06T16:10:04.403Z,4.30
2023-02-06T16:12:39.853Z,4.30
2023-02-06T16:15:28.786Z,4.30
2023-02-06T16:17:57.091Z,4.30
2023-02-06T16:20:32.353Z,4.20
2023-02-06T16:23:22.324Z,4.20
2023-02-06T16:26:04.626Z,4.20
2023-02-06T16:28:31.455Z,4.20
2023-02-06T16:31:02.519Z,4.20
2023-02-06T16:33:50.351Z,4.20
2023-02-06T16:36:20.054Z,4.30
2023-02-06T16:38:57.698Z,4.20
2023-02-06T16:41:35.966Z,4.30
2023-02-06T16:44:04.961Z,4.20
2023-02-06T16:46:31.842Z,4.20
2023-02-06T16:49:00.129Z,4.20
2023-02-06T16:51:29.862Z,4.10
2023-02-06T16:53:57.976Z,4.10
2023-02-06T16:56:24.949Z,4.10
2023-02-06T16:58:51.630Z,4.10
2023-02-06T17:01:25.556Z,4.10
2023-02-06T17:03:52.985Z,4.10
2023-02-06T17:06:23.164Z,4.00
2023-02-06T17:08:51.706Z,4.00
2023-02-06T17:11:18.696Z,3.80
2023-02-06T17:13:45.658Z,3.70
2023-02-06T17:16:19.602Z,3.60
2023-02-06T17:18:47.138Z,3.60
2023-02-06T17:21:16.502Z,3.50
2023-02-06T17:23:44.005Z,3.50
2023-02-06T17:26:16.365Z,3.50
2023-02-06T17:28:43.634Z,3.50
2023-02-06T17:31:10.682Z,3.50
2023-02-06T17:33:37.856Z,3.60
2023-02-06T17:36:07.845Z,3.60
2023-02-06T17:38:34.755Z,3.60
2023-02-06T17:41:01.443Z,3.50
2023-02-06T17:43:29.590Z,3.50
2023-02-06T17:45:56.367Z,3.40
2023-02-06T17:48:23.237Z,3.30
2023-02-06T17:50:50.076Z,3.20
2023-02-06T17:53:17.740Z,3.20
2023-02-06T17:55:45.065Z,3.20
2023-02-06T17:58:11.809Z,3.10
2023-02-06T18:00:38.879Z,3.00
2023-02-06T18:03:05.849Z,3.00
2023-02-06T18:05:32.928Z,3.00
2023-02-06T18:07:59.575Z,3.00
2023-02-06T18:10:26.692Z,3.00
2023-02-06T18:12:53.668Z,3.00
2023-02-06T18:15:20.960Z,3.00
2023-02-06T18:17:47.728Z,2.90
2023-02-06T18:20:15.090Z,2.90
2023-02-06T18:22:42.236Z,2.80
2023-02-06T18:25:13.200Z,2.70
2023-02-06T18:27:41.209Z,2.60
2023-02-06T18:30:09.427Z,2.60
2023-02-06T18:32:37.827Z,2.60
2023-02-06T18:35:08.109Z,2.60
2023-02-06T18:37:35.017Z,2.50
2023-02-06T18:40:02.734Z,2.60
2023-02-06T18:42:48.658Z,2.50
2023-02-06T18:45:15.482Z,2.50
2023-02-06T18:47:43.112Z,2.50
2023-02-06T18:50:11.796Z,2.50
2023-02-06T18:52:39.442Z,2.40
2023-02-06T18:55:08.205Z,2.40
2023-02-06T18:57:35.446Z,2.40
2023-02-06T19:00:04.054Z,2.40
2023-02-06T19:02:31.161Z,2.30
2023-02-06T19:04:59.336Z,2.30
2023-02-06T19:07:26.493Z,2.30
2023-02-06T19:09:58.056Z,2.30
2023-02-06T19:12:27.880Z,2.30
2023-02-06T19:14:58.709Z,2.30
2023-02-06T19:17:27.032Z,2.30
2023-02-06T19:19:54.136Z,2.30
2023-02-06T19:22:20.958Z,2.30
2023-02-06T19:24:47.741Z,2.30
2023-02-06T19:27:14.527Z,2.40
2023-02-06T19:29:41.391Z,2.40
2023-02-06T19:32:09.423Z,2.40
2023-02-06T19:34:40.882Z,2.40
2023-02-06T19:37:09.288Z,2.40
2023-02-06T19:39:37.028Z,2.30
2023-02-06T19:42:06.683Z,2.30
2023-02-06T19:44:34.202Z,2.20
2023-02-06T19:47:01.769Z,2.20
2023-02-06T19:49:29.280Z,2.20
2023-02-06T19:51:56.392Z,2.10
2023-02-06T19:54:23.086Z,2.10
2023-02-06T19:56:49.943Z,2.10
2023-02-06T19:59:25.360Z,2.10
2023-02-06T20:01:54.579Z,2.10
2023-02-06T20:04:24.041Z,2.10
2023-02-06T20:06:51.291Z,2.00
2023-02-06T20:09:20.048Z,2.00
2023-02-06T20:11:49.004Z,1.90
2023-02-06T20:14:17.210Z,2.00
2023-02-06T20:16:45.029Z,2.00
2023-02-06T20:19:18.580Z,2.10
2023-02-06T20:21:48.825Z,2.10
2023-02-06T20:24:21.720Z,2.10
2023-02-06T20:26:51.211Z,2.10
2023-02-06T20:29:30.306Z,2.10
2023-02-06T20:31:57.774Z,2.10
2023-02-06T20:34:25.719Z,2.10
2023-02-06T20:36:52.749Z,2.10
2023-02-06T20:39:20.221Z,2.00
2023-02-06T20:41:49.472Z,1.90
2023-02-06T20:44:17.296Z,1.80
2023-02-06T20:46:44.050Z,1.80
2023-02-06T20:49:19.436Z,1.80
2023-02-06T20:51:46.619Z,1.70
2023-02-06T20:54:13.599Z,1.70
2023-02-06T20:56:40.954Z,1.60
2023-02-06T20:59:11.722Z,1.60
2023-02-06T21:01:39.998Z,1.60
2023-02-06T21:04:09.253Z,1.60
2023-02-06T21:06:38.321Z,1.60
2023-02-06T21:09:07.108Z,1.60
2023-02-06T21:11:40.731Z,1.60
2023-02-06T21:14:07.797Z,1.50
2023-02-06T21:16:37.612Z,1.50
2023-02-06T21:19:07.064Z,1.40
2023-02-06T21:21:34.116Z,1.30
2023-02-06T21:24:01.416Z,1.30
2023-02-06T21:26:28.736Z,1.30
2023-02-06T21:28:58.250Z,1.30
2023-02-06T21:31:33.312Z,1.20
2023-02-06T21:34:05.101Z,1.20
2023-02-06T21:36:32.142Z,1.20
2023-02-06T21:38:59.794Z,1.20
2023-02-06T21:41:27.200Z,1.20
2023-02-06T21:43:54.096Z,1.10
2023-02-06T21:46:20.871Z,1.10
2023-02-06T21:48:54.516Z,1.10
2023-02-06T21:51:21.782Z,1.10
2023-02-06T21:53:48.736Z,1.10
2023-02-06T21:56:19.773Z,1.10
2023-02-06T21:58:47.414Z,1.00
2023-02-06T22:01:16.354Z,1.00
2023-02-06T22:03:44.812Z,1.00
2023-02-06T22:06:13.253Z,0.90
2023-02-06T22:08:42.750Z,0.90
2023-02-06T22:11:20.092Z,1.00
2023-02-06T22:13:47.900Z,1.00
2023-02-06T22:16:16.726Z,1.00
2023-02-06T22:18:43.759Z,1.00
2023-02-06T22:21:19.142Z,1.00
2023-02-06T22:23:47.442Z,1.00
2023-02-06T22:26:16.940Z,1.00
2023-02-06T22:28:44.717Z,0.90
2023-02-06T22:31:23.727Z,1.00
2023-02-06T22:33:51.081Z,0.90
2023-02-06T22:36:23.313Z,0.90
2023-02-06T22:38:55.454Z,0.80
2023-02-06T22:41:22.203Z,0.70
2023-02-06T22:43:50.773Z,0.70
2023-02-06T22:46:24.216Z,0.70
2023-02-06T22:48:51.807Z,0.70
2023-02-06T22:51:19.100Z,0.70
2023-02-06T22:53:45.947Z,0.80
2023-02-06T22:56:37.018Z,0.90
2023-02-06T22:59:17.165Z,0.80
2023-02-06T23:01:46.726Z,0.80
2023-02-06T23:04:22.354Z,0.80
2023-02-06T23:06:49.776Z,0.80
2023-02-06T23:09:37.858Z,0.80
2023-02-06T23:12:05.710Z,0.80
2023-02-06T23:14:33.377Z,0.80
2023-02-06T23:17:01.347Z,0.80
2023-02-06T23:19:28.530Z,0.80
2023-02-06T23:21:55.251Z,0.90
2023-02-06T23:24:22.042Z,0.90
2023-02-06T23:26:50.794Z,1.00
2023-02-06T23:29:21.860Z,1.10
2023-02-06T23:31:50.156Z,1.20
2023-02-06T23:34:17.725Z,1.20
2023-02-06T23:36:44.813Z,1.20
2023-02-06T23:39:11.935Z,1.30
2023-02-06T23:41:38.847Z,1.30
2023-02-06T23:44:07.366Z,1.40
2023-02-06T23:46:36.287Z,1.30
2023-02-06T23:49:03.693Z,1.20
2023-02-06T23:51:30.425Z,1.10
2023-02-06T23:53:57.337Z,1.10
2023-02-06T23:56:26.924Z,1.10
2023-02-06T23:58:55.766Z,1.10
